createdAt,value
2023-05-21T00:02:20.274Z,14.60
2023-05-21T00:04:47.606Z,13.15
2023-05-21T00:07:15.430Z,15.30
2023-05-21T00:09:42.190Z,14.15
2023-05-21T00:12:09.026Z,15.52
2023-05-21T00:14:35.831Z,14.55
2023-05-21T00:17:02.369Z,15.02
2023-05-21T00:19:28.950Z,15.10
2023-05-21T00:21:56.075Z,14.05
2023-05-21T00:24:22.748Z,15.90
2023-05-21T00:26:49.228Z,16.13
2023-05-21T00:29:15.720Z,15.25
2023-05-21T00:31:42.390Z,16.35
2023-05-21T00:34:09.054Z,15.35
2023-05-21T00:36:35.661Z,14.55
2023-05-21T00:39:02.507Z,14.23
2023-05-21T00:41:30.280Z,16.25
2023-05-21T00:43:57.276Z,16.13
2023-05-21T00:46:24.212Z,16.15
2023-05-21T00:48:51.134Z,17.23
2023-05-21T00:51:18.696Z,16.38
2023-05-21T00:53:46.029Z,18.20
2023-05-21T00:56:12.770Z,17.20
2023-05-21T00:58:39.838Z,17.60
2023-05-21T01:01:06.928Z,18.60
2023-05-21T01:03:38.505Z,17.65
2023-05-21T01:06:06.066Z,17.88
2023-05-21T01:08:34.652Z,17.92
2023-05-21T01:11:02.518Z,18.20
2023-05-21T01:13:29.519Z,17.92
2023-05-21T01:15:58.084Z,18.63
2023-05-21T01:18:24.918Z,16.92
2023-05-21T01:20:52.415Z,18.23
2023-05-21T01:23:19.493Z,17.63
2023-05-21T01:25:46.555Z,19.67
2023-05-21T01:28:13.391Z,18.67
2023-05-21T01:30:41.265Z,18.00
2023-05-21T01:33:13.094Z,19.08
2023-05-21T01:35:43.180Z,18.55
2023-05-21T01:38:09.804Z,18.70
2023-05-21T01:40:40.497Z,19.45
2023-05-21T01:43:08.283Z,18.23
2023-05-21T01:45:36.656Z,19.85
2023-05-21T01:48:03.568Z,19.48
2023-05-21T01:50:31.873Z,19.15
2023-05-21T01:52:58.648Z,19.55
2023-05-21T01:55:25.398Z,20.73
2023-05-21T01:57:53.466Z,18.73
2023-05-21T02:00:23.733Z,20.38
2023-05-21T02:02:50.624Z,20.10
2023-05-21T02:05:17.425Z,20.02
2023-05-21T02:07:45.287Z,20.08
2023-05-21T02:10:12.086Z,19.77
2023-05-21T02:12:38.553Z,19.05
2023-05-21T02:15:06.071Z,21.30
2023-05-21T02:17:34.250Z,19.98
2023-05-21T02:20:11.554Z,19.90
2023-05-21T02:22:42.414Z,21.30
2023-05-21T02:25:09.682Z,20.27
2023-05-21T02:27:37.691Z,20.80
2023-05-21T02:30:05.075Z,22.90
2023-05-21T02:32:32.353Z,20.70
2023-05-21T02:34:58.950Z,21.00
2023-05-21T02:37:27.640Z,21.48
2023-05-21T02:39:54.685Z,22.27
2023-05-21T02:42:24.028Z,21.75
2023-05-21T02:44:51.233Z,22.27
2023-05-21T02:47:20.754Z,22.50
2023-05-21T02:49:47.301Z,21.98
2023-05-21T02:52:14.262Z,21.98
2023-05-21T02:54:40.831Z,22.02
2023-05-21T02:57:07.389Z,22.35
2023-05-21T02:59:33.895Z,21.75
2023-05-21T03:02:00.448Z,21.52
2023-05-21T03:04:28.409Z,22.95
2023-05-21T03:06:55.377Z,23.23
2023-05-21T03:09:22.173Z,22.05
2023-05-21T03:11:49.008Z,21.33
2023-05-21T03:14:16.245Z,20.63
2023-05-21T03:16:43.845Z,22.05
2023-05-21T03:19:11.500Z,22.00
2023-05-21T03:21:38.121Z,22.90
2023-05-21T03:24:05.414Z,23.10
2023-05-21T03:26:32.106Z,23.23
2023-05-21T03:28:58.555Z,21.70
2023-05-21T03:31:25.492Z,22.02
2023-05-21T03:33:52.689Z,22.30
2023-05-21T03:36:19.708Z,22.13
2023-05-21T03:38:46.394Z,20.55
2023-05-21T03:41:13.174Z,21.90
2023-05-21T03:43:39.684Z,21.92
2023-05-21T03:46:06.231Z,22.90
2023-05-21T03:48:32.837Z,21.65
2023-05-21T03:50:59.409Z,22.33
2023-05-21T03:53:25.969Z,22.27
2023-05-21T03:55:55.323Z,21.80
2023-05-21T03:58:22.386Z,21.25
2023-05-21T04:00:49.055Z,21.30
2023-05-21T04:03:16.032Z,21.83
2023-05-21T04:05:42.813Z,23.42
2023-05-21T04:08:09.352Z,22.45
2023-05-21T04:10:36.030Z,22.45
2023-05-21T04:13:02.607Z,21.60
2023-05-21T04:15:29.190Z,23.42
2023-05-21T04:17:55.723Z,23.23
2023-05-21T04:20:22.439Z,23.70
2023-05-21T04:22:49.063Z,23.52
2023-05-21T04:25:15.594Z,22.90
2023-05-21T04:27:43.570Z,23.05
2023-05-21T04:30:11.193Z,22.83
2023-05-21T04:32:38.592Z,22.48
2023-05-21T04:35:05.377Z,22.75
2023-05-21T04:37:35.024Z,23.83
2023-05-21T04:40:02.531Z,22.65
2023-05-21T04:42:30.039Z,23.27
2023-05-21T04:44:59.524Z,23.92
2023-05-21T04:47:26.260Z,23.08
2023-05-21T04:49:53.474Z,23.80
2023-05-21T04:52:20.061Z,23.55
2023-05-21T04:54:47.829Z,22.70
2023-05-21T04:57:14.447Z,23.40
2023-05-21T04:59:41.594Z,23.65
2023-05-21T05:02:08.176Z,24.55
2023-05-21T05:04:34.726Z,22.63
2023-05-21T05:07:01.236Z,24.35
2023-05-21T05:09:28.131Z,23.45
2023-05-21T05:11:54.603Z,23.85
2023-05-21T05:14:21.254Z,25.25
2023-05-21T05:16:50.883Z,24.20
2023-05-21T05:19:17.585Z,23.98
2023-05-21T05:21:44.205Z,22.92
2023-05-21T05:24:10.783Z,22.65
2023-05-21T05:26:37.335Z,21.67
2023-05-21T05:29:03.870Z,22.52
2023-05-21T05:31:30.637Z,20.55
2023-05-21T05:33:57.572Z,20.55
2023-05-21T05:36:24.260Z,20.17
2023-05-21T05:38:50.795Z,20.60
2023-05-21T05:41:17.277Z,20.85
2023-05-21T05:43:43.764Z,20.42
2023-05-21T05:46:10.484Z,21.20
2023-05-21T05:48:37.122Z,20.23
2023-05-21T05:51:03.671Z,21.08
2023-05-21T05:53:30.139Z,20.08
2023-05-21T05:55:56.672Z,20.63
2023-05-21T05:58:23.234Z,21.40
2023-05-21T06:00:49.794Z,21.45
2023-05-21T06:03:16.425Z,20.50
2023-05-21T06:05:43.902Z,20.58
2023-05-21T06:08:10.692Z,19.83
2023-05-21T06:10:37.303Z,19.10
2023-05-21T06:13:03.786Z,18.40
2023-05-21T06:15:30.311Z,18.15
2023-05-21T06:17:56.856Z,18.92
2023-05-21T06:20:23.432Z,19.83
2023-05-21T06:22:49.940Z,19.08
2023-05-21T06:25:16.646Z,18.23
2023-05-21T06:27:43.175Z,19.10
2023-05-21T06:30:09.752Z,18.83
2023-05-21T06:32:36.340Z,19.02
2023-05-21T06:35:02.897Z,18.85
2023-05-21T06:37:29.403Z,18.40
2023-05-21T06:39:55.918Z,19.20
2023-05-21T06:42:22.463Z,19.17
2023-05-21T06:44:48.989Z,19.27
2023-05-21T06:47:15.572Z,19.27
2023-05-21T06:49:42.788Z,17.88
2023-05-21T06:52:09.333Z,17.83
2023-05-21T06:54:36.433Z,16.88
2023-05-21T06:57:03.074Z,17.45
2023-05-21T06:59:29.555Z,16.38
2023-05-21T07:01:56.986Z,17.08
2023-05-21T07:04:23.558Z,17.20
2023-05-21T07:06:50.032Z,16.65
2023-05-21T07:09:18.267Z,15.77
2023-05-21T07:11:44.789Z,14.88
2023-05-21T07:14:11.393Z,15.60
2023-05-21T07:16:37.872Z,16.05
2023-05-21T07:19:04.443Z,16.75
2023-05-21T07:21:30.975Z,15.50
2023-05-21T07:23:57.431Z,15.05
2023-05-21T07:26:24.039Z,15.88
2023-05-21T07:28:50.663Z,15.80
2023-05-21T07:31:17.724Z,14.90
2023-05-21T07:33:44.267Z,15.38
2023-05-21T07:36:10.787Z,14.45
2023-05-21T07:38:38.052Z,14.40
2023-05-21T07:41:04.522Z,14.13
2023-05-21T07:43:31.820Z,14.20
2023-05-21T07:45:58.330Z,13.77
2023-05-21T07:48:24.883Z,14.63
2023-05-21T07:50:52.780Z,14.07
2023-05-21T07:53:19.418Z,14.05
2023-05-21T07:55:48.017Z,12.30
2023-05-21T07:58:18.042Z,14.07
2023-05-21T08:00:46.967Z,13.00
2023-05-21T08:03:17.434Z,13.27
2023-05-21T08:05:48.407Z,12.35
2023-05-21T08:08:15.877Z,12.73
2023-05-21T08:10:47.887Z,11.38
2023-05-21T08:13:17.812Z,11.88
2023-05-21T08:15:44.342Z,11.95
2023-05-21T08:18:12.000Z,12.10
2023-05-21T08:20:38.626Z,12.32
2023-05-21T08:23:05.130Z,12.27
2023-05-21T08:25:31.766Z,11.73
2023-05-21T08:27:58.326Z,11.70
2023-05-21T08:30:26.488Z,11.32
2023-05-21T08:32:53.138Z,12.07
2023-05-21T08:35:19.669Z,11.55
2023-05-21T08:37:46.281Z,11.10
2023-05-21T08:40:13.291Z,11.30
2023-05-21T08:42:44.803Z,11.65
2023-05-21T08:45:12.041Z,10.93
2023-05-21T08:47:41.467Z,10.95
2023-05-21T08:50:09.435Z,11.45
2023-05-21T08:52:36.030Z,11.40
2023-05-21T08:55:06.018Z,10.50
2023-05-21T08:57:32.830Z,10.52
2023-05-21T08:59:59.553Z,10.75
2023-05-21T09:02:26.367Z,10.07
2023-05-21T09:04:57.298Z,10.98
2023-05-21T09:07:25.377Z,10.20
2023-05-21T09:09:55.555Z,10.30
2023-05-21T09:12:22.189Z,9.68
2023-05-21T09:14:49.567Z,9.52
2023-05-21T09:17:17.020Z,10.25
2023-05-21T09:20:02.211Z,10.20
2023-05-21T09:22:28.786Z,9.90
2023-05-21T09:24:55.349Z,9.18
2023-05-21T09:27:24.477Z,9.02
2023-05-21T09:29:51.040Z,8.57
2023-05-21T09:32:18.833Z,8.65
2023-05-21T09:34:47.348Z,9.23
2023-05-21T09:37:26.661Z,9.52
2023-05-21T09:39:54.575Z,9.65
2023-05-21T09:42:21.960Z,9.02
2023-05-21T09:44:48.573Z,8.35
2023-05-21T09:47:19.576Z,8.52
2023-05-21T09:49:46.235Z,8.48
2023-05-21T09:52:12.981Z,7.88
2023-05-21T09:54:40.712Z,8.30
2023-05-21T09:57:07.357Z,8.15
2023-05-21T09:59:38.184Z,7.88
2023-05-21T10:02:23.172Z,8.05
2023-05-21T10:04:50.729Z,8.38
2023-05-21T10:07:19.040Z,7.88
2023-05-21T10:09:48.726Z,7.90
2023-05-21T10:12:17.955Z,7.65
2023-05-21T10:14:47.033Z,8.45
2023-05-21T10:17:14.725Z,8.52
2023-05-21T10:19:46.627Z,8.10
2023-05-21T10:22:13.922Z,7.85
2023-05-21T10:24:41.217Z,8.15
2023-05-21T10:27:08.010Z,8.25
2023-05-21T10:29:35.159Z,7.53
2023-05-21T10:32:02.174Z,8.15
2023-05-21T10:34:31.072Z,8.48
2023-05-21T10:36:58.399Z,8.85
2023-05-21T10:39:25.623Z,8.55
2023-05-21T10:42:00.606Z,8.18
2023-05-21T10:44:29.932Z,8.77
2023-05-21T10:47:05.378Z,8.65
2023-05-21T10:49:41.800Z,7.53
2023-05-21T10:52:29.276Z,8.45
2023-05-21T10:54:56.052Z,7.80
2023-05-21T10:57:45.017Z,7.95
2023-05-21T11:00:13.188Z,7.32
2023-05-21T11:02:39.998Z,7.30
2023-05-21T11:05:07.078Z,7.65
2023-05-21T11:07:56.425Z,7.35
2023-05-21T11:10:49.980Z,8.18
2023-05-21T11:13:19.762Z,6.63
2023-05-21T11:15:58.157Z,7.43
2023-05-21T11:18:31.284Z,7.28
2023-05-21T11:21:11.978Z,7.43
2023-05-21T11:23:51.955Z,7.40
2023-05-21T11:26:22.694Z,7.97
2023-05-21T11:29:04.645Z,8.15
2023-05-21T11:31:41.633Z,7.75
2023-05-21T11:34:08.917Z,7.63
2023-05-21T11:36:37.423Z,7.80
2023-05-21T11:39:11.767Z,7.05
2023-05-21T11:41:57.024Z,7.45
2023-05-21T11:44:41.734Z,7.88
2023-05-21T11:47:09.445Z,6.75
2023-05-21T11:49:36.946Z,8.25
2023-05-21T11:52:04.112Z,8.07
2023-05-21T11:54:35.961Z,7.72
2023-05-21T11:57:03.217Z,8.57
2023-05-21T11:59:29.775Z,7.90
2023-05-21T12:01:57.279Z,7.97
2023-05-21T12:04:23.873Z,8.60
2023-05-21T12:06:50.772Z,8.05
2023-05-21T12:09:17.460Z,8.68
2023-05-21T12:11:44.177Z,7.75
2023-05-21T12:14:11.374Z,7.68
2023-05-21T12:16:39.482Z,8.00
2023-05-21T12:19:06.440Z,7.55
2023-05-21T12:21:33.285Z,8.25
2023-05-21T12:23:59.894Z,8.35
2023-05-21T12:26:26.647Z,7.85
2023-05-21T12:28:56.293Z,7.95
2023-05-21T12:31:23.302Z,8.15
2023-05-21T12:33:50.751Z,8.00
2023-05-21T12:36:26.158Z,8.05
2023-05-21T12:38:53.048Z,8.18
2023-05-21T12:41:20.177Z,7.35
2023-05-21T12:43:46.982Z,8.50
2023-05-21T12:46:14.922Z,8.23
2023-05-21T12:48:42.739Z,8.15
2023-05-21T12:51:09.413Z,7.57
2023-05-21T12:53:36.659Z,7.63
2023-05-21T12:56:10.436Z,8.20
2023-05-21T12:58:38.436Z,7.75
2023-05-21T13:01:08.073Z,9.18
2023-05-21T13:03:35.398Z,8.57
2023-05-21T13:06:02.668Z,8.02
2023-05-21T13:08:29.639Z,8.52
2023-05-21T13:10:56.367Z,9.20
2023-05-21T13:13:24.362Z,8.65
2023-05-21T13:15:51.137Z,8.90
2023-05-21T13:18:17.980Z,8.88
2023-05-21T13:20:44.743Z,8.50
2023-05-21T13:23:12.052Z,7.97
2023-05-21T13:25:38.795Z,8.63
2023-05-21T13:28:05.994Z,8.40
2023-05-21T13:30:36.532Z,8.20
2023-05-21T13:33:03.668Z,7.97
2023-05-21T13:35:34.592Z,7.97
2023-05-21T13:38:01.725Z,8.40
2023-05-21T13:40:28.429Z,7.82
2023-05-21T13:42:54.964Z,8.15
2023-05-21T13:45:21.709Z,7.57
2023-05-21T13:47:50.105Z,7.88
2023-05-21T13:50:18.564Z,6.95
2023-05-21T13:52:45.985Z,7.95
2023-05-21T13:55:12.918Z,8.23
2023-05-21T13:57:40.697Z,8.02
2023-05-21T14:00:09.264Z,7.93
2023-05-21T14:02:36.182Z,7.95
2023-05-21T14:05:02.793Z,6.78
2023-05-21T14:07:32.704Z,6.90
2023-05-21T14:10:00.562Z,6.93
2023-05-21T14:12:27.142Z,5.85
2023-05-21T14:14:55.043Z,5.80
2023-05-21T14:17:22.396Z,5.82
2023-05-21T14:19:49.019Z,6.00
2023-05-21T14:22:15.646Z,5.18
2023-05-21T14:24:42.635Z,6.85
2023-05-21T14:27:09.269Z,6.70
2023-05-21T14:29:35.830Z,6.30
2023-05-21T14:32:02.439Z,6.43
2023-05-21T14:34:29.144Z,6.40
2023-05-21T14:36:55.686Z,6.07
2023-05-21T14:39:22.371Z,6.65
2023-05-21T14:41:48.870Z,6.47
2023-05-21T14:44:15.537Z,6.55
2023-05-21T14:46:43.570Z,6.40
2023-05-21T14:49:11.885Z,6.53
2023-05-21T14:51:38.365Z,6.38
2023-05-21T14:54:04.914Z,6.80
2023-05-21T14:56:34.939Z,7.10
2023-05-21T14:59:01.617Z,7.75
2023-05-21T15:01:28.597Z,7.07
2023-05-21T15:03:56.891Z,6.55
2023-05-21T15:06:23.758Z,7.18
2023-05-21T15:08:53.753Z,7.20
2023-05-21T15:11:21.489Z,7.57
2023-05-21T15:13:48.177Z,7.18
2023-05-21T15:16:15.689Z,6.82
2023-05-21T15:18:43.989Z,7.22
2023-05-21T15:21:10.969Z,7.30
2023-05-21T15:23:38.812Z,7.47
2023-05-21T15:26:05.450Z,7.65
2023-05-21T15:28:32.020Z,6.93
2023-05-21T15:30:58.618Z,7.18
2023-05-21T15:33:25.377Z,7.28
2023-05-21T15:35:53.261Z,7.22
2023-05-21T15:38:19.911Z,6.57
2023-05-21T15:40:47.975Z,6.90
2023-05-21T15:43:14.700Z,6.85
2023-05-21T15:45:41.980Z,7.30
2023-05-21T15:48:08.891Z,7.50
2023-05-21T15:50:35.932Z,8.48
2023-05-21T15:53:03.508Z,7.50
2023-05-21T15:55:33.634Z,7.35
2023-05-21T15:58:02.400Z,7.38
2023-05-21T16:00:29.439Z,7.22
2023-05-21T16:02:56.048Z,8.13
2023-05-21T16:05:22.702Z,7.35
2023-05-21T16:07:49.890Z,7.60
2023-05-21T16:10:16.586Z,7.57
2023-05-21T16:12:43.595Z,7.57
2023-05-21T16:15:11.049Z,7.57
2023-05-21T16:17:37.712Z,7.35
2023-05-21T16:20:06.503Z,8.05
2023-05-21T16:22:33.065Z,7.30
2023-05-21T16:24:59.643Z,8.15
2023-05-21T16:27:26.541Z,8.20
2023-05-21T16:29:53.039Z,7.88
2023-05-21T16:32:19.689Z,7.38
2023-05-21T16:34:46.407Z,7.40
2023-05-21T16:37:12.986Z,7.32
2023-05-21T16:39:39.533Z,8.02
2023-05-21T16:42:06.165Z,7.47
2023-05-21T16:44:32.798Z,7.72
2023-05-21T16:46:59.746Z,7.28
2023-05-21T16:49:26.921Z,7.50
2023-05-21T16:51:53.659Z,7.47
2023-05-21T16:54:21.022Z,7.32
2023-05-21T16:56:47.597Z,7.32
2023-05-21T16:59:14.296Z,7.95
2023-05-21T17:01:40.988Z,7.93
2023-05-21T17:04:07.766Z,8.30
2023-05-21T17:06:34.927Z,7.88
2023-05-21T17:09:02.490Z,7.97
2023-05-21T17:11:30.599Z,7.20
2023-05-21T17:13:57.244Z,7.55
2023-05-21T17:16:25.655Z,7.03
2023-05-21T17:18:52.500Z,7.93
2023-05-21T17:21:19.560Z,7.80
2023-05-21T17:23:47.980Z,7.95
2023-05-21T17:26:14.694Z,7.97
2023-05-21T17:28:41.350Z,8.40
2023-05-21T17:31:08.642Z,7.97
2023-05-21T17:33:36.314Z,8.00
2023-05-21T17:36:03.541Z,8.02
2023-05-21T17:38:30.388Z,8.65
2023-05-21T17:40:58.870Z,8.05
2023-05-21T17:43:27.740Z,7.60
2023-05-21T17:45:56.628Z,8.18
2023-05-21T17:48:24.413Z,8.43
2023-05-21T17:50:52.296Z,8.80
2023-05-21T17:53:18.992Z,8.15
2023-05-21T17:55:45.834Z,8.45
2023-05-21T17:58:12.383Z,8.15
2023-05-21T18:00:40.343Z,8.70
2023-05-21T18:03:09.841Z,7.78
2023-05-21T18:05:36.793Z,8.57
2023-05-21T18:08:04.714Z,8.55
2023-05-21T18:10:31.258Z,8.43
2023-05-21T18:12:57.874Z,7.90
2023-05-21T18:15:24.735Z,8.32
2023-05-21T18:17:51.235Z,8.23
2023-05-21T18:20:17.912Z,8.13
2023-05-21T18:22:44.980Z,8.32
2023-05-21T18:25:11.591Z,8.90
2023-05-21T18:27:38.189Z,8.85
2023-05-21T18:30:06.458Z,9.15
2023-05-21T18:32:33.901Z,8.50
2023-05-21T18:35:00.553Z,8.25
2023-05-21T18:37:29.185Z,7.93
2023-05-21T18:39:55.863Z,7.78
2023-05-21T18:42:22.404Z,8.65
2023-05-21T18:44:50.909Z,8.63
2023-05-21T18:47:17.528Z,8.73
2023-05-21T18:49:44.105Z,8.13
2023-05-21T18:52:11.418Z,8.68
2023-05-21T18:54:39.223Z,8.15
2023-05-21T18:57:05.961Z,7.50
2023-05-21T18:59:32.731Z,8.00
2023-05-21T19:02:01.565Z,7.80
2023-05-21T19:04:28.671Z,7.32
2023-05-21T19:06:55.275Z,8.23
2023-05-21T19:09:21.819Z,8.20
2023-05-21T19:11:50.643Z,7.72
2023-05-21T19:14:20.311Z,7.25
2023-05-21T19:17:05.441Z,7.90
2023-05-21T19:20:01.292Z,7.47
2023-05-21T19:37:13.121Z,8.20
2023-05-21T19:39:59.915Z,8.63
2023-05-21T19:42:46.770Z,8.23
2023-05-21T19:45:33.619Z,7.90
2023-05-21T19:48:20.471Z,7.50
2023-05-21T19:51:07.275Z,8.32
2023-05-21T19:53:54.090Z,7.43
2023-05-21T19:56:39.734Z,7.67
2023-05-21T19:59:06.241Z,7.60
2023-05-21T20:01:35.571Z,7.82
2023-05-21T20:04:02.392Z,8.15
2023-05-21T20:06:29.413Z,7.38
2023-05-21T20:08:58.381Z,7.57
2023-05-21T20:11:26.689Z,7.90
2023-05-21T20:13:53.383Z,8.27
2023-05-21T20:16:20.448Z,7.88
2023-05-21T20:18:47.436Z,6.97
2023-05-21T20:21:19.130Z,7.53
2023-05-21T20:23:45.852Z,6.97
2023-05-21T20:26:14.355Z,7.60
2023-05-21T20:28:42.982Z,7.70
2023-05-21T20:31:09.710Z,7.43
2023-05-21T20:33:43.130Z,7.47
2023-05-21T20:36:09.796Z,7.32
2023-05-21T20:38:38.058Z,7.30
2023-05-21T20:41:04.931Z,7.47
2023-05-21T20:43:31.520Z,7.07
2023-05-21T20:46:01.691Z,7.57
2023-05-21T20:48:29.806Z,7.07
2023-05-21T20:50:57.498Z,7.72
2023-05-21T20:53:25.114Z,7.18
2023-05-21T20:55:54.749Z,7.80
2023-05-21T20:58:25.519Z,8.07
2023-05-21T21:00:52.209Z,8.02
2023-05-21T21:03:21.635Z,7.35
2023-05-21T21:05:48.555Z,7.55
2023-05-21T21:08:16.191Z,7.35
2023-05-21T21:10:46.657Z,7.82
2023-05-21T21:13:13.789Z,7.30
2023-05-21T21:15:41.023Z,7.53
2023-05-21T21:18:07.721Z,8.02
2023-05-21T21:20:34.408Z,7.90
2023-05-21T21:23:00.989Z,7.50
2023-05-21T21:25:27.482Z,7.43
2023-05-21T21:27:54.178Z,7.43
2023-05-21T21:30:20.848Z,7.00
2023-05-21T21:32:49.455Z,7.80
2023-05-21T21:35:16.296Z,7.65
2023-05-21T21:37:42.964Z,8.15
2023-05-21T21:40:09.734Z,7.72
2023-05-21T21:42:36.650Z,8.20
2023-05-21T21:45:03.759Z,7.28
2023-05-21T21:47:30.313Z,8.30
2023-05-21T21:49:57.040Z,7.45
2023-05-21T21:52:27.437Z,7.60
2023-05-21T21:54:57.584Z,7.53
2023-05-21T21:57:27.621Z,7.40
2023-05-21T21:59:54.271Z,8.10
2023-05-21T22:02:20.842Z,7.97
2023-05-21T22:04:48.083Z,8.32
2023-05-21T22:07:17.750Z,7.40
2023-05-21T22:09:47.210Z,7.32
2023-05-21T22:12:13.745Z,7.85
2023-05-21T22:14:40.352Z,8.30
2023-05-21T22:17:09.154Z,7.60
2023-05-21T22:19:36.577Z,8.23
2023-05-21T22:22:04.546Z,7.97
2023-05-21T22:24:33.347Z,8.82
2023-05-21T22:27:00.516Z,8.25
2023-05-21T22:29:27.567Z,8.13
2023-05-21T22:31:54.208Z,8.02
2023-05-21T22:34:20.832Z,8.15
2023-05-21T22:36:47.378Z,8.68
2023-05-21T22:39:14.183Z,8.18
2023-05-21T22:41:40.734Z,8.75
2023-05-21T22:44:07.311Z,8.05
2023-05-21T22:46:35.541Z,8.32
2023-05-21T22:49:02.377Z,8.68
2023-05-21T22:51:34.741Z,8.68
2023-05-21T22:54:01.852Z,8.18
2023-05-21T22:56:29.043Z,8.10
2023-05-21T22:58:56.678Z,8.85
2023-05-21T23:01:24.417Z,7.95
2023-05-21T23:03:51.388Z,8.88
2023-05-21T23:06:17.854Z,8.98
2023-05-21T23:08:44.739Z,8.65
2023-05-21T23:11:11.224Z,9.80
2023-05-21T23:13:37.798Z,9.30
2023-05-21T23:16:04.437Z,9.25
2023-05-21T23:18:31.057Z,9.82
2023-05-21T23:20:57.586Z,8.45
2023-05-21T23:23:24.161Z,7.88
2023-05-21T23:25:53.085Z,8.88
2023-05-21T23:28:19.527Z,9.25
2023-05-21T23:33:25.418Z,8.55
2023-05-21T23:35:52.051Z,9.15
2023-05-21T23:38:18.558Z,9.32
2023-05-21T23:40:45.109Z,9.45
2023-05-21T23:43:12.430Z,9.82
2023-05-21T23:45:38.975Z,9.50
2023-05-21T23:48:05.743Z,9.65
2023-05-21T23:50:32.393Z,9.77
2023-05-21T23:53:00.146Z,10.93
2023-05-21T23:55:26.700Z,10.02
2023-05-21T23:57:53.175Z,9.98
